METAR Data
IDs: Format: Raw Decoded Include TAF

Data at: 0705 UTC 03 Aug 2021

KMDW 030653Z 00000KT 10SM SCT095 20/12 A3011 RMK AO2 SLP188 T02000122